createdAt,value
2022-09-23T00:01:14.291Z,8.20
2022-09-23T00:02:36.420Z,8.20
2022-09-23T00:04:00.092Z,8.20
2022-09-23T00:05:22.112Z,8.20
2022-09-23T00:06:44.115Z,8.20
2022-09-23T00:08:11.439Z,8.20
2022-09-23T00:09:33.568Z,8.20
2022-09-23T00:10:56.162Z,8.20
2022-09-23T00:12:18.156Z,8.10
2022-09-23T00:13:42.372Z,8.10
2022-09-23T00:15:04.735Z,8.10
2022-09-23T00:16:34.281Z,8.10
2022-09-23T00:17:56.968Z,8.10
2022-09-23T00:19:18.979Z,8.10
2022-09-23T00:20:41.229Z,8.10
2022-09-23T00:22:03.376Z,8.10
2022-09-23T00:23:25.369Z,8.10
2022-09-23T00:24:47.440Z,8.10
2022-09-23T00:26:12.185Z,8.00
2022-09-23T00:27:35.589Z,8.00
2022-09-23T00:28:57.616Z,8.00
2022-09-23T00:30:19.683Z,8.00
2022-09-23T00:31:42.103Z,8.00
2022-09-23T00:33:04.109Z,8.00
2022-09-23T00:34:26.138Z,8.00
2022-09-23T00:35:48.595Z,7.90
2022-09-23T00:37:11.346Z,7.90
2022-09-23T00:38:34.073Z,7.90
2022-09-23T00:39:56.920Z,7.90
2022-09-23T00:41:18.937Z,7.90
2022-09-23T00:42:48.703Z,7.90
2022-09-23T00:44:42.887Z,7.90
2022-09-23T00:46:08.329Z,7.80
2022-09-23T00:47:36.257Z,7.80
2022-09-23T00:49:20.848Z,7.80
2022-09-23T00:50:48.295Z,7.80
2022-09-23T00:52:18.047Z,7.80
2022-09-23T00:53:40.867Z,7.80
2022-09-23T00:55:08.641Z,7.80
2022-09-23T00:56:33.290Z,7.80
2022-09-23T00:57:58.683Z,7.80
2022-09-23T00:59:21.658Z,7.80
2022-09-23T01:00:46.418Z,7.80
2022-09-23T01:02:13.029Z,7.80
2022-09-23T01:03:35.206Z,7.70
2022-09-23T01:04:58.425Z,7.70
2022-09-23T01:06:21.245Z,7.70
2022-09-23T01:07:43.981Z,7.70
2022-09-23T01:09:06.190Z,7.70
2022-09-23T01:10:34.611Z,7.70
2022-09-23T01:12:15.278Z,7.70
2022-09-23T01:13:51.975Z,7.70
2022-09-23T01:15:24.046Z,7.70
2022-09-23T01:17:10.791Z,7.70
2022-09-23T01:18:48.850Z,7.70
2022-09-23T01:20:25.686Z,7.70
2022-09-23T01:21:50.438Z,7.70
2022-09-23T01:23:24.103Z,7.70
2022-09-23T01:24:46.248Z,7.70
2022-09-23T01:26:23.544Z,7.70
2022-09-23T01:28:29.753Z,7.60
2022-09-23T01:30:02.697Z,7.60
2022-09-23T01:31:30.486Z,7.60
2022-09-23T01:33:14.189Z,7.60
2022-09-23T01:35:00.257Z,7.60
2022-09-23T01:36:24.340Z,7.60
2022-09-23T01:37:52.133Z,7.50
2022-09-23T01:39:20.863Z,7.50
2022-09-23T01:40:51.983Z,7.50
2022-09-23T01:42:22.194Z,7.50
2022-09-23T01:44:07.635Z,7.50
2022-09-23T01:45:32.674Z,7.50
2022-09-23T01:47:00.701Z,7.50
2022-09-23T01:48:39.818Z,7.50
2022-09-23T01:50:45.162Z,7.50
2022-09-23T01:52:18.196Z,7.40
2022-09-23T01:54:08.832Z,7.40
2022-09-23T01:55:34.436Z,7.40
2022-09-23T01:57:23.096Z,7.40
2022-09-23T01:58:53.769Z,7.40
2022-09-23T02:00:18.281Z,7.40
2022-09-23T02:02:01.505Z,7.40
2022-09-23T02:03:39.117Z,7.40
2022-09-23T02:05:10.790Z,7.40
2022-09-23T02:06:58.265Z,7.30
2022-09-23T02:08:26.120Z,7.30
2022-09-23T02:09:59.975Z,7.30
2022-09-23T02:11:22.069Z,7.30
2022-09-23T02:12:49.904Z,7.30
2022-09-23T02:14:29.278Z,7.30
2022-09-23T02:15:56.467Z,7.30
2022-09-23T02:17:29.123Z,7.30
2022-09-23T02:19:11.567Z,7.30
2022-09-23T02:20:36.670Z,7.30
2022-09-23T02:22:37.664Z,7.20
2022-09-23T02:24:12.174Z,7.20
2022-09-23T02:25:55.509Z,7.20
2022-09-23T02:27:35.333Z,7.20
2022-09-23T02:29:14.719Z,7.20
2022-09-23T02:30:47.024Z,7.20
2022-09-23T02:32:18.014Z,7.20
2022-09-23T02:33:46.542Z,7.20
2022-09-23T02:35:46.830Z,7.10
2022-09-23T02:37:23.363Z,7.10
2022-09-23T02:38:52.422Z,7.10
2022-09-23T02:40:28.253Z,7.10
2022-09-23T02:42:05.866Z,7.10
2022-09-23T02:43:36.518Z,7.10
2022-09-23T02:44:58.938Z,7.00
2022-09-23T02:46:21.971Z,7.00
2022-09-23T02:47:49.116Z,7.00
2022-09-23T02:49:19.287Z,7.00
2022-09-23T02:50:41.422Z,7.00
2022-09-23T02:52:05.757Z,7.00
2022-09-23T02:53:28.560Z,7.00
2022-09-23T02:54:52.382Z,7.00
2022-09-23T02:56:21.891Z,7.00
2022-09-23T02:57:44.851Z,7.00
2022-09-23T02:59:08.861Z,7.00
2022-09-23T03:01:07.445Z,6.90
2022-09-23T03:03:04.363Z,6.90
2022-09-23T03:04:38.376Z,6.90
2022-09-23T03:06:07.455Z,6.90
2022-09-23T03:07:51.255Z,6.90
2022-09-23T03:09:34.831Z,6.80
2022-09-23T03:11:08.839Z,6.80
2022-09-23T03:12:52.884Z,6.80
2022-09-23T03:14:18.204Z,6.80
2022-09-23T03:15:53.306Z,6.80
2022-09-23T03:17:23.182Z,6.80
2022-09-23T03:19:06.200Z,6.70
2022-09-23T03:20:42.666Z,6.70
2022-09-23T03:22:29.327Z,6.70
2022-09-23T03:23:53.518Z,6.80
2022-09-23T03:25:21.218Z,6.70
2022-09-23T03:26:47.270Z,6.70
2022-09-23T03:28:10.568Z,6.70
2022-09-23T03:29:36.929Z,6.70
2022-09-23T03:31:02.118Z,6.70
2022-09-23T03:32:27.964Z,6.70
2022-09-23T03:33:57.878Z,6.70
2022-09-23T03:35:24.005Z,6.70
2022-09-23T03:37:00.983Z,6.70
2022-09-23T03:38:27.116Z,6.70
2022-09-23T03:39:54.138Z,6.70
2022-09-23T03:41:23.419Z,6.70
2022-09-23T03:42:48.816Z,6.70
2022-09-23T03:44:11.860Z,6.70
2022-09-23T03:45:34.520Z,6.70
2022-09-23T03:47:02.310Z,6.70
2022-09-23T03:48:25.191Z,6.70
2022-09-23T03:49:49.581Z,6.70
2022-09-23T03:51:23.715Z,6.70
2022-09-23T03:52:46.337Z,6.70
2022-09-23T03:54:08.441Z,6.60
2022-09-23T03:55:32.151Z,6.60
2022-09-23T03:56:57.713Z,6.60
2022-09-23T03:58:19.698Z,6.60
2022-09-23T03:59:41.704Z,6.60
2022-09-23T04:01:04.124Z,6.60
2022-09-23T04:02:26.904Z,6.60
2022-09-23T04:03:49.087Z,6.50
2022-09-23T04:05:12.966Z,6.60
2022-09-23T04:06:35.671Z,6.60
2022-09-23T04:07:57.674Z,6.60
2022-09-23T04:09:19.914Z,6.50
2022-09-23T04:10:42.195Z,6.60
2022-09-23T04:12:05.365Z,6.60
2022-09-23T04:13:28.493Z,6.50
2022-09-23T04:14:50.537Z,6.50
2022-09-23T04:16:12.647Z,6.50
2022-09-23T04:17:34.736Z,6.50
2022-09-23T04:18:56.750Z,6.50
2022-09-23T04:20:19.258Z,6.50
2022-09-23T04:21:42.965Z,6.50
2022-09-23T04:23:04.955Z,6.50
2022-09-23T04:24:27.077Z,6.50
2022-09-23T04:25:49.800Z,6.50
2022-09-23T04:27:11.767Z,6.50
2022-09-23T04:28:34.609Z,6.40
2022-09-23T04:29:56.604Z,6.40
2022-09-23T04:31:18.667Z,6.40
2022-09-23T04:32:40.679Z,6.40
2022-09-23T04:34:02.986Z,6.40
2022-09-23T04:35:25.063Z,6.40
2022-09-23T04:36:48.883Z,6.40
2022-09-23T04:38:12.593Z,6.40
2022-09-23T04:39:34.603Z,6.40
2022-09-23T04:40:56.877Z,6.40
2022-09-23T04:42:18.949Z,6.40
2022-09-23T04:43:42.235Z,6.40
2022-09-23T04:45:05.567Z,6.40
2022-09-23T04:46:28.137Z,6.40
2022-09-23T04:47:50.392Z,6.40
2022-09-23T04:49:12.977Z,6.50
2022-09-23T04:50:35.185Z,6.50
2022-09-23T04:51:57.163Z,6.50
2022-09-23T04:53:19.351Z,6.50
2022-09-23T04:54:41.699Z,6.50
2022-09-23T04:56:12.077Z,6.50
2022-09-23T04:57:34.550Z,6.60
2022-09-23T04:58:58.179Z,6.60
2022-09-23T05:00:20.920Z,6.60
2022-09-23T05:01:43.054Z,6.60
2022-09-23T05:03:05.207Z,6.60
2022-09-23T05:04:27.483Z,6.60
2022-09-23T05:05:49.750Z,6.70
2022-09-23T05:07:12.127Z,6.70
2022-09-23T05:08:34.993Z,6.80
2022-09-23T05:09:56.984Z,6.80
2022-09-23T05:11:19.314Z,6.80
2022-09-23T05:12:41.469Z,6.90
2022-09-23T05:14:03.780Z,6.90
2022-09-23T05:15:26.486Z,7.00
2022-09-23T05:16:48.461Z,7.10
2022-09-23T05:18:10.446Z,7.20
2022-09-23T05:19:32.472Z,7.20
2022-09-23T05:20:55.473Z,7.30
2022-09-23T05:22:17.504Z,7.30
2022-09-23T05:23:40.773Z,7.40
2022-09-23T05:25:03.453Z,7.50
2022-09-23T05:26:27.756Z,7.60
2022-09-23T05:27:51.077Z,7.80
2022-09-23T05:29:13.130Z,7.90
2022-09-23T05:30:35.404Z,8.00
2022-09-23T05:31:57.497Z,8.10
2022-09-23T05:33:19.560Z,8.20
2022-09-23T05:34:41.750Z,8.30
2022-09-23T05:36:05.064Z,8.30
2022-09-23T05:37:27.079Z,8.40
2022-09-23T05:38:50.793Z,8.40
2022-09-23T05:40:12.825Z,8.50
2022-09-23T05:41:34.945Z,8.50
2022-09-23T05:42:57.262Z,8.60
2022-09-23T05:44:19.376Z,8.60
2022-09-23T05:45:41.347Z,8.70
2022-09-23T05:47:03.520Z,8.70
2022-09-23T05:48:25.576Z,8.70
2022-09-23T05:49:59.561Z,8.70
2022-09-23T05:51:28.738Z,8.70
2022-09-23T05:52:52.750Z,8.70
2022-09-23T05:54:14.804Z,8.80
2022-09-23T05:55:36.796Z,8.80
2022-09-23T05:57:01.401Z,8.80
2022-09-23T05:58:27.670Z,8.90
2022-09-23T05:59:49.713Z,8.90
2022-09-23T06:01:17.884Z,9.00
2022-09-23T06:02:40.163Z,9.00
2022-09-23T06:04:04.597Z,9.10
2022-09-23T06:05:26.639Z,9.10
2022-09-23T06:06:48.650Z,9.20
2022-09-23T06:08:11.532Z,9.30
2022-09-23T06:09:36.588Z,9.30
2022-09-23T06:11:07.128Z,9.40
2022-09-23T06:12:29.120Z,9.40
2022-09-23T06:13:55.834Z,9.40
2022-09-23T06:15:18.284Z,9.50
2022-09-23T06:16:40.502Z,9.60
2022-09-23T06:18:03.248Z,9.60
2022-09-23T06:19:25.270Z,9.70
2022-09-23T06:20:47.983Z,9.70
2022-09-23T06:22:11.029Z,9.80
2022-09-23T06:23:34.504Z,10.00
2022-09-23T06:24:58.151Z,10.00
2022-09-23T06:26:20.125Z,10.10
2022-09-23T06:27:42.174Z,10.20
2022-09-23T06:29:09.926Z,10.30
2022-09-23T06:30:31.900Z,10.40
2022-09-23T06:31:53.987Z,10.40
2022-09-23T06:33:17.462Z,10.50
2022-09-23T06:34:51.542Z,10.60
2022-09-23T06:36:28.820Z,10.70
2022-09-23T06:37:56.525Z,10.80
2022-09-23T06:39:18.525Z,10.90
2022-09-23T06:40:40.543Z,11.00
2022-09-23T06:42:02.878Z,11.00
2022-09-23T06:43:25.999Z,11.10
2022-09-23T06:44:48.010Z,11.20
2022-09-23T06:46:15.579Z,11.30
2022-09-23T06:47:37.838Z,11.40
2022-09-23T06:48:59.928Z,11.50
2022-09-23T06:50:24.026Z,11.50
2022-09-23T06:51:46.156Z,11.60
2022-09-23T06:53:08.152Z,11.60
2022-09-23T06:54:30.840Z,11.70
2022-09-23T06:56:04.545Z,11.80
2022-09-23T06:57:33.089Z,11.80
2022-09-23T06:58:55.126Z,11.90
2022-09-23T07:00:17.177Z,11.90
2022-09-23T07:01:39.565Z,12.00
2022-09-23T07:03:01.963Z,12.10
2022-09-23T07:04:29.156Z,12.20
2022-09-23T07:05:55.270Z,12.20
2022-09-23T07:07:18.592Z,12.30
2022-09-23T07:08:44.636Z,12.40
2022-09-23T07:10:07.796Z,12.40
2022-09-23T07:11:30.015Z,12.40
2022-09-23T07:12:52.267Z,12.50
2022-09-23T07:14:14.305Z,12.50
2022-09-23T07:15:36.492Z,12.60
2022-09-23T07:16:59.927Z,12.70
2022-09-23T07:18:25.850Z,12.70
2022-09-23T07:19:47.884Z,12.80
2022-09-23T07:21:15.906Z,12.80
2022-09-23T07:22:38.557Z,12.90
2022-09-23T07:24:00.729Z,12.90
2022-09-23T07:25:23.159Z,12.90
2022-09-23T07:26:45.862Z,13.00
2022-09-23T07:28:08.142Z,13.10
2022-09-23T07:29:40.774Z,13.10
2022-09-23T07:31:11.314Z,13.10
2022-09-23T07:32:45.579Z,13.20
2022-09-23T07:34:11.695Z,13.20
2022-09-23T07:35:34.165Z,13.30
2022-09-23T07:36:56.150Z,13.30
2022-09-23T07:38:18.223Z,13.40
2022-09-23T07:39:41.511Z,13.50
2022-09-23T07:41:06.309Z,13.60
2022-09-23T07:42:28.347Z,13.70
2022-09-23T07:43:55.496Z,13.70
2022-09-23T07:45:18.191Z,13.80
2022-09-23T07:46:40.467Z,13.80
2022-09-23T07:48:03.558Z,13.90
2022-09-23T07:49:26.437Z,14.00
2022-09-23T07:50:48.404Z,14.00
2022-09-23T07:52:11.098Z,14.10
2022-09-23T07:53:33.394Z,14.20
2022-09-23T07:54:55.392Z,14.20
2022-09-23T07:56:21.967Z,14.20
2022-09-23T07:57:43.991Z,14.30
2022-09-23T07:59:09.306Z,14.30
2022-09-23T08:00:31.497Z,14.30
2022-09-23T08:01:54.818Z,14.40
2022-09-23T08:03:17.314Z,14.40
2022-09-23T08:04:39.382Z,14.50
2022-09-23T08:06:08.682Z,14.60
2022-09-23T08:07:31.247Z,14.70
2022-09-23T08:08:53.712Z,14.80
2022-09-23T08:10:19.048Z,14.90
2022-09-23T08:11:42.372Z,15.00
2022-09-23T08:13:04.537Z,15.20
2022-09-23T08:14:26.721Z,15.40
2022-09-23T08:15:53.276Z,15.50
2022-09-23T08:17:17.404Z,15.60
2022-09-23T08:18:39.501Z,15.70
2022-09-23T08:20:01.865Z,15.70
2022-09-23T08:21:24.015Z,15.80
2022-09-23T08:22:51.205Z,15.80
2022-09-23T08:24:16.097Z,15.90
2022-09-23T08:25:38.112Z,16.00
2022-09-23T08:27:00.143Z,15.90
2022-09-23T08:28:22.571Z,15.90
2022-09-23T08:29:44.625Z,15.90
2022-09-23T08:31:08.209Z,16.00
2022-09-23T08:32:30.289Z,16.00
2022-09-23T08:33:56.741Z,16.10
2022-09-23T08:35:19.679Z,16.10
2022-09-23T08:36:41.858Z,16.20
2022-09-23T08:38:04.043Z,16.20
2022-09-23T08:39:26.071Z,16.20
2022-09-23T08:40:50.048Z,16.20
2022-09-23T08:42:19.162Z,16.10
2022-09-23T08:43:53.424Z,16.10
2022-09-23T08:45:23.951Z,16.10
2022-09-23T08:47:12.213Z,16.20
2022-09-23T08:48:38.579Z,16.20
2022-09-23T08:50:22.000Z,16.30
2022-09-23T08:51:48.398Z,16.30
2022-09-23T08:53:35.877Z,16.40
2022-09-23T08:54:58.033Z,16.50
2022-09-23T08:56:23.398Z,16.50
2022-09-23T08:58:26.845Z,16.60
2022-09-23T08:59:49.290Z,16.70
2022-09-23T09:01:17.235Z,16.70
2022-09-23T09:02:39.431Z,16.70
2022-09-23T09:04:12.591Z,16.70
2022-09-23T09:05:35.260Z,16.70
2022-09-23T09:07:35.253Z,16.70
2022-09-23T09:08:57.083Z,16.70
2022-09-23T09:10:23.567Z,16.70
2022-09-23T09:11:49.127Z,16.70
2022-09-23T09:13:43.748Z,16.70
2022-09-23T09:15:13.053Z,16.80
2022-09-23T09:17:01.513Z,16.90
2022-09-23T09:18:25.657Z,17.00
2022-09-23T09:20:23.131Z,17.10
2022-09-23T09:21:47.946Z,17.30
2022-09-23T09:23:22.818Z,17.20
2022-09-23T09:24:48.501Z,17.30
2022-09-23T09:26:20.635Z,17.30
2022-09-23T09:27:42.842Z,17.30
2022-09-23T09:29:34.236Z,17.30
2022-09-23T09:31:00.718Z,17.30
2022-09-23T09:32:35.913Z,17.40
2022-09-23T09:34:23.798Z,17.40
2022-09-23T09:36:08.812Z,17.50
2022-09-23T09:37:36.701Z,17.50
2022-09-23T09:38:59.510Z,17.60
2022-09-23T09:40:21.762Z,17.70
2022-09-23T09:41:48.762Z,17.70
2022-09-23T09:43:16.388Z,17.70
2022-09-23T09:44:50.391Z,17.70
2022-09-23T09:46:15.307Z,17.70
2022-09-23T09:48:10.771Z,17.80
2022-09-23T09:49:42.567Z,17.80
2022-09-23T09:51:22.088Z,17.90
2022-09-23T09:52:44.086Z,17.90
2022-09-23T09:54:25.920Z,17.90
2022-09-23T09:56:02.208Z,18.00
2022-09-23T09:57:35.065Z,18.10
2022-09-23T09:59:11.013Z,18.20
2022-09-23T10:00:33.024Z,18.20
2022-09-23T10:02:13.534Z,18.10
2022-09-23T10:03:41.412Z,18.20
2022-09-23T10:05:07.406Z,18.30
2022-09-23T10:06:33.998Z,18.30
2022-09-23T10:07:56.200Z,18.40
2022-09-23T10:09:19.453Z,18.60
2022-09-23T10:11:00.295Z,18.70
2022-09-23T10:12:25.275Z,18.80
2022-09-23T10:14:13.589Z,18.80
2022-09-23T10:15:44.972Z,18.90
2022-09-23T10:17:14.861Z,18.80
2022-09-23T10:18:38.324Z,18.70
2022-09-23T10:20:06.850Z,18.70
2022-09-23T10:21:36.883Z,18.70
2022-09-23T10:23:06.628Z,18.70
2022-09-23T10:24:36.617Z,18.70
2022-09-23T10:26:06.747Z,18.70
2022-09-23T10:27:32.533Z,18.70
2022-09-23T10:28:55.620Z,18.70
2022-09-23T10:30:25.161Z,18.80
2022-09-23T10:31:47.242Z,18.80
2022-09-23T10:33:27.858Z,18.70
2022-09-23T10:34:55.890Z,18.70
2022-09-23T10:36:18.793Z,18.70
2022-09-23T10:37:42.284Z,18.70
2022-09-23T10:39:24.750Z,18.60
2022-09-23T10:41:05.498Z,18.50
2022-09-23T10:43:18.980Z,18.50
2022-09-23T10:45:15.821Z,18.70
2022-09-23T10:47:00.688Z,18.80
2022-09-23T10:48:52.605Z,19.10
2022-09-23T10:50:33.088Z,19.30
2022-09-23T10:52:14.719Z,19.40
2022-09-23T10:53:56.437Z,19.50
2022-09-23T10:55:30.442Z,19.60
2022-09-23T10:57:00.799Z,19.70
2022-09-23T10:58:47.690Z,19.80
2022-09-23T11:00:23.120Z,19.80
2022-09-23T11:02:15.702Z,19.80
2022-09-23T11:04:03.925Z,19.70
2022-09-23T11:05:28.867Z,19.50
2022-09-23T11:07:21.813Z,19.30
2022-09-23T11:08:56.166Z,19.10
2022-09-23T11:10:45.972Z,19.00
2022-09-23T11:12:47.143Z,19.00
2022-09-23T11:14:42.601Z,19.10
2022-09-23T11:16:10.438Z,19.20
2022-09-23T11:17:54.616Z,19.40
2022-09-23T11:19:55.937Z,19.50
2022-09-23T11:21:37.104Z,19.70
2022-09-23T11:23:32.226Z,19.70
2022-09-23T11:25:14.162Z,19.80
2022-09-23T11:27:04.458Z,19.80
2022-09-23T11:28:32.828Z,19.90
2022-09-23T11:30:14.125Z,20.00
2022-09-23T11:31:49.945Z,20.10
2022-09-23T11:33:17.779Z,20.10
2022-09-23T11:35:17.541Z,20.10
2022-09-23T11:36:59.726Z,20.10
2022-09-23T11:38:28.128Z,20.20
2022-09-23T11:40:22.762Z,20.30
2022-09-23T11:41:46.744Z,20.40
2022-09-23T11:43:33.480Z,20.30
2022-09-23T11:45:01.238Z,20.40
2022-09-23T11:46:38.384Z,20.30
2022-09-23T11:48:09.742Z,20.20
2022-09-23T11:49:39.333Z,20.30
2022-09-23T11:51:38.055Z,20.30
2022-09-23T11:53:12.150Z,20.40
2022-09-23T11:54:49.201Z,20.40
2022-09-23T11:56:35.941Z,20.40
2022-09-23T11:58:21.794Z,20.40
2022-09-23T11:59:54.491Z,20.40
2022-09-23T12:01:46.058Z,20.20
2022-09-23T12:03:17.781Z,20.10
2022-09-23T12:04:55.511Z,20.10
2022-09-23T12:06:47.961Z,20.10
2022-09-23T12:08:36.736Z,20.30
2022-09-23T12:10:07.513Z,20.30
2022-09-23T12:12:13.982Z,20.40
2022-09-23T12:14:01.319Z,20.50
2022-09-23T12:15:42.076Z,20.40
2022-09-23T12:17:23.229Z,20.50
2022-09-23T12:19:19.386Z,20.60
2022-09-23T12:21:03.914Z,20.60
2022-09-23T12:22:55.042Z,20.60
2022-09-23T12:24:55.707Z,20.60
2022-09-23T12:26:21.922Z,20.70
2022-09-23T12:27:48.906Z,20.70
2022-09-23T12:29:13.841Z,20.70
2022-09-23T12:30:37.867Z,20.70
2022-09-23T12:32:01.167Z,20.70
2022-09-23T12:33:28.392Z,20.80
2022-09-23T12:34:52.210Z,20.70
2022-09-23T12:36:14.371Z,20.70
2022-09-23T12:37:38.364Z,20.70
2022-09-23T12:39:21.998Z,20.60
2022-09-23T12:40:44.721Z,20.50
2022-09-23T12:42:18.025Z,20.40
2022-09-23T12:43:51.878Z,20.40
2022-09-23T12:45:35.139Z,20.30
2022-09-23T12:47:20.918Z,20.40
2022-09-23T12:48:57.903Z,20.50
2022-09-23T12:50:48.123Z,20.50
2022-09-23T12:52:13.458Z,20.50
2022-09-23T12:53:35.412Z,20.50
2022-09-23T12:55:18.421Z,20.50
2022-09-23T12:56:40.423Z,20.50
2022-09-23T12:58:02.453Z,20.50
2022-09-23T12:59:28.900Z,20.30
2022-09-23T13:01:28.849Z,20.40
2022-09-23T13:03:11.903Z,20.50
2022-09-23T13:04:54.119Z,20.70
2022-09-23T13:06:34.788Z,20.60
2022-09-23T13:08:05.115Z,20.50
2022-09-23T13:09:30.489Z,20.30
2022-09-23T13:10:59.897Z,20.20
2022-09-23T13:12:31.315Z,20.10
2022-09-23T13:13:56.340Z,20.20
2022-09-23T13:15:38.634Z,20.20
2022-09-23T13:17:01.112Z,20.20
2022-09-23T13:18:25.201Z,20.30
2022-09-23T13:19:57.218Z,20.40
2022-09-23T13:21:42.150Z,20.40
2022-09-23T13:23:28.225Z,20.40
2022-09-23T13:25:02.932Z,20.20
2022-09-23T13:26:25.060Z,20.10
2022-09-23T13:27:51.716Z,20.00
2022-09-23T13:29:42.519Z,20.00
2022-09-23T13:31:13.741Z,19.90
2022-09-23T13:32:45.873Z,19.80
2022-09-23T13:34:11.616Z,19.70
2022-09-23T13:35:41.848Z,19.70
2022-09-23T13:37:23.887Z,19.70
2022-09-23T13:38:47.015Z,19.70
2022-09-23T13:40:24.463Z,19.80
2022-09-23T13:41:46.574Z,19.90
2022-09-23T13:43:40.834Z,20.10
2022-09-23T13:45:03.482Z,20.00
2022-09-23T13:46:38.259Z,20.10
2022-09-23T13:48:07.441Z,20.10
2022-09-23T13:49:35.323Z,20.10
2022-09-23T13:50:57.589Z,20.10
2022-09-23T13:52:26.840Z,20.00
2022-09-23T13:53:57.450Z,19.90
2022-09-23T13:55:28.503Z,19.80
2022-09-23T13:56:50.599Z,19.70
2022-09-23T13:58:24.346Z,19.70
2022-09-23T13:59:46.330Z,19.80
2022-09-23T14:01:10.275Z,19.80
2022-09-23T14:02:32.470Z,19.90
2022-09-23T14:03:54.547Z,20.00
2022-09-23T14:05:24.944Z,20.00
2022-09-23T14:06:46.976Z,20.10
2022-09-23T14:08:09.090Z,20.10
2022-09-23T14:09:31.708Z,20.10
2022-09-23T14:10:55.305Z,20.10
2022-09-23T14:12:22.359Z,20.20
2022-09-23T14:13:45.892Z,20.30
2022-09-23T14:15:14.580Z,20.20
2022-09-23T14:16:40.252Z,20.20
2022-09-23T14:18:06.233Z,20.10
2022-09-23T14:19:28.489Z,20.10
2022-09-23T14:20:50.610Z,20.00
2022-09-23T14:22:26.561Z,19.80
2022-09-23T14:23:48.533Z,19.70
2022-09-23T14:25:16.289Z,19.60
2022-09-23T14:26:40.046Z,19.50
2022-09-23T14:28:02.554Z,19.30
2022-09-23T14:29:31.708Z,19.20
2022-09-23T14:30:57.524Z,19.00
2022-09-23T14:32:22.962Z,18.90
2022-09-23T14:33:44.986Z,18.70
2022-09-23T14:35:19.312Z,18.60
2022-09-23T14:36:59.841Z,18.50
2022-09-23T14:38:43.568Z,18.50
2022-09-23T14:40:12.947Z,18.40
2022-09-23T14:41:44.373Z,18.30
2022-09-23T14:43:15.990Z,18.30
2022-09-23T14:44:38.222Z,18.30
2022-09-23T14:46:00.409Z,18.30
2022-09-23T14:47:22.610Z,18.40
2022-09-23T14:48:59.896Z,18.40
2022-09-23T14:50:39.246Z,18.50
2022-09-23T14:52:06.877Z,18.50
2022-09-23T14:53:43.212Z,18.50
2022-09-23T14:55:15.222Z,18.50
2022-09-23T14:56:42.233Z,18.50
2022-09-23T14:58:05.959Z,18.40
2022-09-23T14:59:34.667Z,18.40
2022-09-23T15:01:00.169Z,18.40
2022-09-23T15:02:37.552Z,18.40
2022-09-23T15:04:20.684Z,18.30
2022-09-23T15:05:46.244Z,18.20
2022-09-23T15:07:18.504Z,18.10
2022-09-23T15:08:41.888Z,18.10
2022-09-23T15:10:09.657Z,18.00
2022-09-23T15:11:31.760Z,18.00
2022-09-23T15:13:02.523Z,17.90
2022-09-23T15:14:38.399Z,17.80
2022-09-23T15:16:01.924Z,17.80
2022-09-23T15:17:23.937Z,17.80
2022-09-23T15:18:53.003Z,17.80
2022-09-23T15:20:26.838Z,17.70
2022-09-23T15:21:54.328Z,17.70
2022-09-23T15:23:33.575Z,17.70
2022-09-23T15:25:16.855Z,17.70
2022-09-23T15:26:48.930Z,17.60
2022-09-23T15:28:10.926Z,17.60
2022-09-23T15:29:33.643Z,17.60
2022-09-23T15:30:56.447Z,17.60
2022-09-23T15:32:19.030Z,17.60
2022-09-23T15:33:41.143Z,17.60
2022-09-23T15:35:03.342Z,17.60
2022-09-23T15:36:27.853Z,17.60
2022-09-23T15:37:51.489Z,17.50
2022-09-23T15:39:14.236Z,17.50
2022-09-23T15:40:37.152Z,17.50
2022-09-23T15:41:59.605Z,17.50
2022-09-23T15:43:25.009Z,17.50
2022-09-23T15:44:47.021Z,17.40
2022-09-23T15:46:22.082Z,17.40
2022-09-23T15:47:45.206Z,17.30
2022-09-23T15:49:15.929Z,17.30
2022-09-23T15:50:39.343Z,17.20
2022-09-23T15:52:03.516Z,17.10
2022-09-23T15:53:27.762Z,17.10
2022-09-23T15:54:49.859Z,17.00
2022-09-23T15:56:12.499Z,17.00
2022-09-23T15:57:34.503Z,16.90
2022-09-23T15:58:56.471Z,16.90
2022-09-23T16:00:18.638Z,16.80
2022-09-23T16:01:42.450Z,16.70
2022-09-23T16:03:06.566Z,16.70
2022-09-23T16:04:28.565Z,16.60
2022-09-23T16:05:50.719Z,16.60
2022-09-23T16:07:16.433Z,16.50
2022-09-23T16:08:39.083Z,16.50
2022-09-23T16:10:01.052Z,16.50
2022-09-23T16:11:31.798Z,16.40
2022-09-23T16:12:56.770Z,16.40
2022-09-23T16:14:19.439Z,16.30
2022-09-23T16:15:42.250Z,16.30
2022-09-23T16:17:05.064Z,16.30
2022-09-23T16:18:27.193Z,16.20
2022-09-23T16:19:49.210Z,16.20
2022-09-23T16:21:13.703Z,16.10
2022-09-23T16:22:36.502Z,16.10
2022-09-23T16:23:59.239Z,16.00
2022-09-23T16:25:25.319Z,16.00
2022-09-23T16:26:48.615Z,15.90
2022-09-23T16:28:11.104Z,15.90
2022-09-23T16:29:33.364Z,15.80
2022-09-23T16:30:55.455Z,15.80
2022-09-23T16:32:22.037Z,15.70
2022-09-23T16:33:48.343Z,15.60
2022-09-23T16:35:10.449Z,15.60
2022-09-23T16:36:35.088Z,15.50
2022-09-23T16:39:09.858Z,15.40
2022-09-23T16:40:32.599Z,15.30
2022-09-23T16:41:54.692Z,15.30
2022-09-23T16:43:16.808Z,15.20
2022-09-23T16:44:41.450Z,15.20
2022-09-23T16:46:03.510Z,15.10
2022-09-23T16:47:25.554Z,15.10
2022-09-23T16:48:52.306Z,15.00
2022-09-23T16:50:17.327Z,15.00
2022-09-23T16:51:40.547Z,15.00
2022-09-23T16:53:02.490Z,14.90
2022-09-23T16:54:24.862Z,14.90
2022-09-23T16:55:46.852Z,14.90
2022-09-23T16:57:09.653Z,14.90
2022-09-23T16:58:31.739Z,14.80
2022-09-23T17:00:12.124Z,14.90
2022-09-23T17:01:52.976Z,14.80
2022-09-23T17:03:33.648Z,14.80
2022-09-23T17:04:56.987Z,14.80
2022-09-23T17:06:19.344Z,14.80
2022-09-23T17:07:41.413Z,14.80
2022-09-23T17:09:03.627Z,14.70
2022-09-23T17:10:26.169Z,14.70
2022-09-23T17:12:04.667Z,14.70
2022-09-23T17:13:28.419Z,14.70
2022-09-23T17:14:50.454Z,14.60
2022-09-23T17:16:23.787Z,14.60
2022-09-23T17:17:45.866Z,14.60
2022-09-23T17:19:09.732Z,14.60
2022-09-23T17:20:32.176Z,14.50
2022-09-23T17:21:54.696Z,14.50
2022-09-23T17:23:16.890Z,14.50
2022-09-23T17:24:39.074Z,14.40
2022-09-23T17:26:01.866Z,14.50
2022-09-23T17:27:24.949Z,14.40
2022-09-23T17:28:47.342Z,14.40
2022-09-23T17:30:10.101Z,14.40
2022-09-23T17:31:32.210Z,14.30
2022-09-23T17:32:54.394Z,14.30
2022-09-23T17:34:18.710Z,14.30
2022-09-23T17:35:41.540Z,14.30
2022-09-23T17:37:04.145Z,14.20
2022-09-23T17:38:29.385Z,14.30
2022-09-23T17:39:51.820Z,14.20
2022-09-23T17:41:14.820Z,14.20
2022-09-23T17:42:41.348Z,14.10
2022-09-23T17:44:04.654Z,14.10
2022-09-23T17:45:26.713Z,14.10
2022-09-23T17:46:49.357Z,14.00
2022-09-23T17:48:11.352Z,14.00
2022-09-23T17:49:35.403Z,14.00
2022-09-23T17:51:02.109Z,13.90
2022-09-23T17:52:24.190Z,13.90
2022-09-23T17:53:47.808Z,13.90
2022-09-23T17:55:09.845Z,13.80
2022-09-23T17:56:33.862Z,13.80
2022-09-23T17:57:55.936Z,13.80
2022-09-23T17:59:18.190Z,13.70
2022-09-23T18:00:40.263Z,13.70
2022-09-23T18:02:02.404Z,13.70
2022-09-23T18:03:30.109Z,13.70
2022-09-23T18:04:52.337Z,13.60
2022-09-23T18:06:22.489Z,13.60
2022-09-23T18:07:44.486Z,13.60
2022-09-23T18:09:08.489Z,13.50
2022-09-23T18:10:31.153Z,13.50
2022-09-23T18:11:53.334Z,13.50
2022-09-23T18:13:15.338Z,13.50
2022-09-23T18:14:37.338Z,13.40
2022-09-23T18:16:02.701Z,13.40
2022-09-23T18:17:24.774Z,13.40
2022-09-23T18:18:54.466Z,13.40
2022-09-23T18:20:16.932Z,13.40
2022-09-23T18:21:41.878Z,13.30
2022-09-23T18:23:04.037Z,13.30
2022-09-23T18:24:33.897Z,13.30
2022-09-23T18:25:56.858Z,13.30
2022-09-23T18:27:18.923Z,13.30
2022-09-23T18:28:40.912Z,13.30
2022-09-23T18:30:03.352Z,13.30
2022-09-23T18:31:25.474Z,13.20
2022-09-23T18:32:47.549Z,13.20
2022-09-23T18:34:15.160Z,13.20
2022-09-23T18:35:37.187Z,13.20
2022-09-23T18:36:59.221Z,13.20
2022-09-23T18:38:21.261Z,13.20
2022-09-23T18:39:43.400Z,13.20
2022-09-23T18:41:07.178Z,13.10
2022-09-23T18:42:30.171Z,13.10
2022-09-23T18:43:52.914Z,13.10
2022-09-23T18:45:14.890Z,13.10
2022-09-23T18:46:37.277Z,13.10
2022-09-23T18:48:17.958Z,13.10
2022-09-23T18:49:58.809Z,13.10
2022-09-23T18:51:23.864Z,13.10
2022-09-23T18:52:45.858Z,13.10
2022-09-23T18:54:08.512Z,13.00
2022-09-23T18:55:34.305Z,13.00
2022-09-23T18:56:56.619Z,13.00
2022-09-23T18:58:18.678Z,13.00
2022-09-23T18:59:40.868Z,13.00
2022-09-23T19:01:08.222Z,13.00
2022-09-23T19:02:32.618Z,13.00
2022-09-23T19:03:56.316Z,12.90
2022-09-23T19:05:19.033Z,12.90
2022-09-23T19:06:41.103Z,12.90
2022-09-23T19:08:03.156Z,12.90
2022-09-23T19:09:25.256Z,12.90
2022-09-23T19:10:55.770Z,12.80
2022-09-23T19:12:17.781Z,12.90
2022-09-23T19:13:40.536Z,12.80
2022-09-23T19:15:04.544Z,12.80